createdAt,value
2017-07-01T00:00:05.603Z,6.00
2017-07-01T00:02:31.902Z,4.50
2017-07-01T00:04:58.218Z,4.55
2017-07-01T00:07:24.518Z,4.12
2017-07-01T00:09:50.877Z,3.65
2017-07-01T00:12:17.169Z,3.50
2017-07-01T00:14:43.445Z,3.78
2017-07-01T00:17:09.729Z,6.45
2017-07-01T00:19:36.379Z,5.72
2017-07-01T00:22:03.044Z,3.80
2017-07-01T00:24:29.373Z,3.75
2017-07-01T00:26:55.686Z,3.92
2017-07-01T00:29:22.018Z,3.00
2017-07-01T00:31:48.341Z,4.37
2017-07-01T00:34:14.636Z,3.10
2017-07-01T00:36:40.965Z,4.97
2017-07-01T00:39:07.256Z,3.53
2017-07-01T00:41:33.577Z,3.20
2017-07-01T00:43:59.866Z,4.25
2017-07-01T00:46:26.194Z,3.42
2017-07-01T00:48:52.510Z,3.20
2017-07-01T00:51:18.779Z,3.40
2017-07-01T00:53:45.481Z,3.72
2017-07-01T00:56:11.742Z,4.03
2017-07-01T00:58:38.047Z,2.90
2017-07-01T01:01:04.342Z,3.97
2017-07-01T01:03:30.658Z,4.07
2017-07-01T01:05:57.413Z,3.28
2017-07-01T01:08:24.499Z,5.10
2017-07-01T01:10:50.829Z,5.10
2017-07-01T01:13:17.159Z,3.05
2017-07-01T01:15:43.439Z,3.28
2017-07-01T01:18:09.755Z,3.00
2017-07-01T01:20:36.044Z,3.60
2017-07-01T01:23:02.608Z,4.18
2017-07-01T01:25:29.274Z,5.25
2017-07-01T01:27:55.565Z,3.45
2017-07-01T01:30:21.880Z,3.90
2017-07-01T01:32:48.174Z,3.08
2017-07-01T01:35:14.500Z,2.85
2017-07-01T01:37:40.809Z,5.10
2017-07-01T01:40:07.732Z,3.15
2017-07-01T01:42:34.053Z,3.25
2017-07-01T01:45:01.835Z,3.50
2017-07-01T01:47:30.137Z,3.20
2017-07-01T01:49:56.440Z,3.60
2017-07-01T01:52:23.095Z,3.12
2017-07-01T01:54:49.991Z,3.70
2017-07-01T01:57:16.339Z,5.50
2017-07-01T01:59:42.625Z,3.17
2017-07-01T02:02:08.938Z,4.53
2017-07-01T02:04:35.258Z,3.40
2017-07-01T02:07:02.556Z,5.50
2017-07-01T02:09:28.855Z,4.45
2017-07-01T02:11:58.109Z,3.10
2017-07-01T02:14:24.450Z,3.05
2017-07-01T02:17:00.088Z,5.70
2017-07-01T02:19:26.775Z,4.20
2017-07-01T02:22:06.157Z,3.78
2017-07-01T02:24:32.449Z,3.42
2017-07-01T02:26:58.791Z,3.30
2017-07-01T02:29:25.104Z,3.00
2017-07-01T02:31:51.402Z,3.40
2017-07-01T02:34:20.755Z,3.42
2017-07-01T02:36:52.082Z,4.55
2017-07-01T02:39:38.132Z,7.72
2017-07-01T02:42:04.797Z,3.20
2017-07-01T02:44:31.077Z,5.78
2017-07-01T02:47:03.490Z,3.40
2017-07-01T02:49:35.760Z,3.58
2017-07-01T02:52:06.978Z,5.20
2017-07-01T02:54:53.001Z,4.05
2017-07-01T02:57:19.297Z,4.07
2017-07-01T02:59:46.504Z,4.95
2017-07-01T03:02:13.967Z,3.60
2017-07-01T03:04:40.251Z,3.65
2017-07-01T03:07:06.519Z,5.15
2017-07-01T03:09:42.766Z,4.00
2017-07-01T03:12:09.086Z,5.60
2017-07-01T03:14:35.392Z,6.72
2017-07-01T03:17:01.722Z,4.15
2017-07-01T03:19:28.824Z,5.12
2017-07-01T03:21:55.119Z,4.40
2017-07-01T03:24:21.425Z,4.75
2017-07-01T03:26:47.712Z,3.60
2017-07-01T03:29:22.916Z,6.55
2017-07-01T03:31:49.567Z,4.45
2017-07-01T03:34:15.865Z,3.58
2017-07-01T03:36:42.145Z,3.70
2017-07-01T03:39:20.607Z,4.97
2017-07-01T03:41:59.010Z,3.45
2017-07-01T03:44:36.168Z,4.10
2017-07-01T03:47:02.443Z,4.10
2017-07-01T03:49:31.699Z,3.65
2017-07-01T03:51:58.016Z,6.60
2017-07-01T03:54:51.231Z,4.97
2017-07-01T03:57:17.536Z,4.70
2017-07-01T03:59:44.243Z,4.18
2017-07-01T04:02:10.559Z,5.45
2017-07-01T04:04:40.678Z,3.55
2017-07-01T04:07:06.993Z,4.80
2017-07-01T04:09:33.287Z,3.90
2017-07-01T04:11:59.588Z,3.60
2017-07-01T04:14:25.876Z,6.00
2017-07-01T04:16:52.539Z,4.25
2017-07-01T04:19:20.651Z,4.57
2017-07-01T04:21:47.916Z,4.62
2017-07-01T04:24:14.284Z,4.80
2017-07-01T04:26:40.595Z,3.47
2017-07-01T04:29:06.892Z,4.45
2017-07-01T04:31:33.227Z,4.12
2017-07-01T04:33:59.512Z,3.58
2017-07-01T04:36:25.800Z,3.90
2017-07-01T04:38:52.108Z,3.85
2017-07-01T04:41:37.488Z,3.65
2017-07-01T04:44:04.689Z,4.15
2017-07-01T04:46:30.983Z,2.97
2017-07-01T04:49:00.056Z,3.20
2017-07-01T04:51:52.051Z,5.65
2017-07-01T04:54:22.060Z,3.00
2017-07-01T04:56:51.314Z,3.97
2017-07-01T04:59:17.641Z,4.03
2017-07-01T05:01:53.009Z,3.25
2017-07-01T05:04:39.268Z,3.40
2017-07-01T05:07:23.257Z,3.72
2017-07-01T05:10:08.436Z,4.37
2017-07-01T05:12:37.393Z,4.70
2017-07-01T05:15:10.758Z,3.90
2017-07-01T05:17:39.986Z,8.82
2017-07-01T05:20:21.460Z,3.40
2017-07-01T05:22:59.854Z,3.30
2017-07-01T05:25:38.210Z,3.85
2017-07-01T05:28:04.525Z,2.97
2017-07-01T05:30:39.156Z,5.65
2017-07-01T05:33:05.497Z,3.00
2017-07-01T05:35:33.743Z,3.95
2017-07-01T05:38:00.041Z,4.25
2017-07-01T05:40:26.323Z,4.68
2017-07-01T05:42:58.692Z,3.12
2017-07-01T05:45:24.972Z,3.58
2017-07-01T05:47:51.384Z,3.42
2017-07-01T05:50:17.717Z,3.35
2017-07-01T05:55:17.109Z,3.40
2017-07-01T05:57:43.464Z,4.55
2017-07-01T06:00:09.802Z,3.00
2017-07-01T06:02:36.107Z,4.07
2017-07-01T06:05:02.434Z,3.28
2017-07-01T06:07:28.741Z,3.20
2017-07-01T06:10:24.763Z,3.10
2017-07-01T06:12:51.946Z,4.62
2017-07-01T06:15:30.676Z,4.78
2017-07-01T06:17:56.975Z,3.30
2017-07-01T06:20:42.006Z,3.50
2017-07-01T06:23:33.176Z,3.65
2017-07-01T06:26:15.286Z,3.30
2017-07-01T06:28:47.927Z,3.83
2017-07-01T06:31:24.144Z,4.37
2017-07-01T06:33:50.445Z,3.60
2017-07-01T06:36:18.722Z,3.72
2017-07-01T06:39:03.910Z,3.45
2017-07-01T06:41:35.338Z,3.20
2017-07-01T06:44:23.324Z,5.82
2017-07-01T06:46:51.368Z,4.78
2017-07-01T06:49:17.721Z,3.30
2017-07-01T06:51:44.042Z,4.80
2017-07-01T06:54:12.092Z,3.00
2017-07-01T06:56:38.408Z,4.00
2017-07-01T06:59:04.708Z,2.97
2017-07-01T07:01:31.339Z,4.78
2017-07-01T07:03:57.624Z,4.05
2017-07-01T07:06:23.934Z,5.18
2017-07-01T07:08:50.256Z,4.00
2017-07-01T07:11:16.555Z,3.00
2017-07-01T07:13:42.853Z,4.15
2017-07-01T07:16:09.185Z,3.20
2017-07-01T07:18:35.523Z,3.10
2017-07-01T07:21:01.828Z,3.37
2017-07-01T07:23:28.659Z,3.08
2017-07-01T07:25:54.954Z,2.90
2017-07-01T07:28:21.257Z,3.00
2017-07-01T07:30:47.588Z,2.90
2017-07-01T07:33:13.884Z,2.70
2017-07-01T07:35:40.593Z,3.20
2017-07-01T07:38:06.906Z,3.50
2017-07-01T07:40:33.165Z,2.97
2017-07-01T07:42:59.464Z,3.30
2017-07-01T07:45:25.781Z,3.55
2017-07-01T07:47:52.045Z,3.20
2017-07-01T07:50:18.349Z,4.93
2017-07-01T07:52:44.918Z,2.70
2017-07-01T07:55:11.195Z,4.07
2017-07-01T07:57:37.480Z,2.90
2017-07-01T08:00:03.822Z,5.55
2017-07-01T08:02:30.105Z,2.92
2017-07-01T08:04:56.415Z,3.70
2017-07-01T08:07:22.705Z,3.83
2017-07-01T08:09:49.429Z,2.85
2017-07-01T08:12:15.707Z,3.20
2017-07-01T08:14:42.470Z,5.50
2017-07-01T08:17:08.788Z,3.92
2017-07-01T08:19:35.058Z,2.70
2017-07-01T08:22:01.365Z,2.72
2017-07-01T08:24:27.643Z,2.95
2017-07-01T08:26:53.945Z,3.08
2017-07-01T08:29:20.233Z,2.87
2017-07-01T08:31:46.521Z,3.33
2017-07-01T08:34:12.811Z,2.65
2017-07-01T08:36:39.072Z,3.10
2017-07-01T08:39:05.713Z,2.70
2017-07-01T08:41:31.982Z,3.10
2017-07-01T08:43:58.257Z,5.55
2017-07-01T08:46:24.550Z,4.50
2017-07-01T08:48:50.835Z,2.70
2017-07-01T08:51:17.528Z,4.53
2017-07-01T08:53:43.793Z,3.90
2017-07-01T08:56:10.383Z,3.10
2017-07-01T08:58:36.681Z,3.70
2017-07-01T09:01:02.960Z,2.80
2017-07-01T09:03:29.268Z,3.40
2017-07-01T09:05:55.564Z,4.33
2017-07-01T09:08:21.838Z,4.60
2017-07-01T09:10:48.142Z,3.50
2017-07-01T09:13:14.809Z,4.00
2017-07-01T09:15:41.093Z,3.80
2017-07-01T09:18:07.408Z,3.10
2017-07-01T09:20:33.687Z,4.43
2017-07-01T09:22:59.963Z,2.80
2017-07-01T09:25:26.260Z,6.50
2017-07-01T09:27:52.537Z,4.40
2017-07-01T09:30:18.833Z,4.80
2017-07-01T09:32:45.111Z,4.40
2017-07-01T09:35:11.388Z,2.90
2017-07-01T09:37:37.679Z,2.80
2017-07-01T09:40:04.328Z,3.00
2017-07-01T09:42:30.614Z,2.70
2017-07-01T09:44:56.888Z,2.87
2017-07-01T09:47:23.666Z,3.10
2017-07-01T09:49:49.992Z,3.00
2017-07-01T09:52:16.292Z,3.03
2017-07-01T09:54:42.604Z,3.10
2017-07-01T09:57:08.902Z,2.90
2017-07-01T09:59:35.623Z,4.90
2017-07-01T10:02:01.945Z,3.27
2017-07-01T10:04:28.232Z,6.70
2017-07-01T10:06:54.897Z,4.23
2017-07-01T10:09:21.166Z,3.40
2017-07-01T10:11:48.334Z,3.40
2017-07-01T10:14:14.980Z,3.10
2017-07-01T10:16:41.647Z,5.00
2017-07-01T10:19:07.923Z,3.10
2017-07-01T10:21:34.212Z,3.17
2017-07-01T10:24:00.490Z,2.70
2017-07-01T10:26:26.756Z,3.77
2017-07-01T10:28:53.432Z,5.33
2017-07-01T10:31:19.703Z,2.70
2017-07-01T10:33:45.969Z,3.00
2017-07-01T10:36:12.271Z,3.30
2017-07-01T10:38:38.866Z,3.30
2017-07-01T10:41:05.186Z,4.10
2017-07-01T10:43:31.481Z,3.10
2017-07-01T10:45:59.076Z,3.27
2017-07-01T10:48:25.354Z,3.73
2017-07-01T10:50:51.631Z,2.87
2017-07-01T10:53:17.937Z,2.70
2017-07-01T10:55:45.036Z,3.57
2017-07-01T10:58:11.731Z,3.20
2017-07-01T11:00:38.049Z,3.77
2017-07-01T11:03:04.827Z,3.07
2017-07-01T11:05:31.209Z,4.90
2017-07-01T11:07:57.502Z,3.73
2017-07-01T11:10:23.792Z,2.50
2017-07-01T11:12:50.089Z,5.53
2017-07-01T11:15:16.758Z,2.50
2017-07-01T11:17:43.043Z,2.70
2017-07-01T11:20:09.347Z,2.60
2017-07-01T11:22:35.618Z,2.60
2017-07-01T11:25:02.306Z,3.27
2017-07-01T11:27:28.597Z,5.03
2017-07-01T11:29:54.909Z,3.10
2017-07-01T11:32:21.466Z,3.47
2017-07-01T11:34:47.721Z,2.70
2017-07-01T11:37:14.000Z,3.43
2017-07-01T11:39:40.661Z,3.07
2017-07-01T11:42:06.945Z,2.60
2017-07-01T11:44:33.249Z,2.90
2017-07-01T11:47:00.698Z,4.20
2017-07-01T11:49:27.108Z,2.63
2017-07-01T11:51:53.417Z,3.70
2017-07-01T11:54:20.095Z,3.33
2017-07-01T11:56:46.392Z,3.30
2017-07-01T11:59:12.693Z,2.50
2017-07-01T12:01:39.419Z,2.60
2017-07-01T12:04:05.702Z,2.50
2017-07-01T12:06:31.988Z,2.73
2017-07-01T12:08:58.274Z,2.43
2017-07-01T12:11:24.589Z,3.43
2017-07-01T12:13:50.908Z,3.13
2017-07-01T12:16:18.433Z,2.60
2017-07-01T12:18:44.716Z,3.07
2017-07-01T12:21:11.008Z,3.90
2017-07-01T12:23:37.322Z,2.63
2017-07-01T12:26:03.609Z,2.90
2017-07-01T12:28:29.883Z,2.60
2017-07-01T12:30:56.176Z,2.40
2017-07-01T12:33:22.483Z,3.30
2017-07-01T12:35:48.801Z,2.90
2017-07-01T12:38:15.477Z,3.40
2017-07-01T12:40:42.197Z,2.70
2017-07-01T12:43:08.523Z,2.30
2017-07-01T12:45:34.796Z,2.97
2017-07-01T12:48:01.112Z,2.40
2017-07-01T12:50:27.404Z,3.63
2017-07-01T12:52:53.719Z,2.47
2017-07-01T12:55:19.994Z,2.50
2017-07-01T12:57:46.888Z,2.40
2017-07-01T13:00:13.168Z,2.40
2017-07-01T13:02:39.445Z,2.40
2017-07-01T13:05:05.704Z,2.60
2017-07-01T13:07:32.281Z,2.43
2017-07-01T13:09:58.564Z,2.27
2017-07-01T13:12:24.856Z,2.33
2017-07-01T13:14:51.165Z,2.30
2017-07-01T13:17:17.425Z,2.70
2017-07-01T13:19:43.796Z,2.30
2017-07-01T13:22:10.087Z,2.67
2017-07-01T13:24:36.646Z,2.40
2017-07-01T13:27:02.992Z,2.80
2017-07-01T13:29:29.286Z,2.50
2017-07-01T13:31:55.637Z,2.50
2017-07-01T13:34:21.913Z,2.50
2017-07-01T13:36:48.212Z,3.67
2017-07-01T13:39:14.522Z,2.50
2017-07-01T13:41:40.840Z,2.50
2017-07-01T13:44:07.524Z,2.30
2017-07-01T13:46:35.528Z,3.03
2017-07-01T13:49:01.836Z,2.60
2017-07-01T13:51:28.141Z,4.20
2017-07-01T13:53:54.529Z,2.50
2017-07-01T13:56:20.819Z,2.80
2017-07-01T13:58:47.542Z,2.60
2017-07-01T14:01:13.824Z,2.40
2017-07-01T14:03:40.151Z,2.63
2017-07-01T14:06:06.452Z,3.00
2017-07-01T14:08:32.734Z,2.47
2017-07-01T14:10:59.030Z,2.50
2017-07-01T14:13:25.370Z,3.47
2017-07-01T14:15:51.636Z,2.30
2017-07-01T14:18:17.932Z,2.30
2017-07-01T14:20:44.238Z,2.33
2017-07-01T14:23:10.527Z,2.70
2017-07-01T14:25:37.709Z,3.13
2017-07-01T14:28:03.972Z,2.50
2017-07-01T14:30:31.241Z,2.50
2017-07-01T14:32:57.562Z,4.93
2017-07-01T14:35:24.545Z,2.47
2017-07-01T14:37:50.816Z,5.03
2017-07-01T14:40:17.107Z,2.60
2017-07-01T14:42:43.394Z,2.40
2017-07-01T14:45:10.823Z,3.00
2017-07-01T14:47:37.092Z,2.50
2017-07-01T14:50:03.418Z,2.40
2017-07-01T14:52:31.035Z,2.30
2017-07-01T14:54:57.343Z,3.43
2017-07-01T14:57:24.462Z,2.30
2017-07-01T14:59:50.782Z,2.90
2017-07-01T15:02:17.093Z,2.70
2017-07-01T15:04:43.403Z,2.50
2017-07-01T15:07:09.708Z,4.77
2017-07-01T15:09:36.010Z,2.60
2017-07-01T15:12:02.292Z,2.83
2017-07-01T15:14:28.580Z,2.60
2017-07-01T15:16:55.235Z,2.97
2017-07-01T15:19:21.522Z,4.37
2017-07-01T15:21:47.802Z,2.50
2017-07-01T15:24:14.352Z,3.03
2017-07-01T15:26:40.622Z,2.80
2017-07-01T15:29:06.900Z,2.60
2017-07-01T15:31:33.854Z,2.30
2017-07-01T15:34:00.145Z,2.70
2017-07-01T15:36:27.418Z,2.60
2017-07-01T15:38:53.685Z,2.70
2017-07-01T15:41:19.976Z,2.50
2017-07-01T15:43:46.264Z,3.03
2017-07-01T15:46:12.572Z,3.90
2017-07-01T15:48:38.842Z,2.50
2017-07-01T15:51:05.143Z,2.40
2017-07-01T15:53:31.448Z,2.40
2017-07-01T15:55:57.723Z,2.50
2017-07-01T15:58:24.409Z,2.40
2017-07-01T16:01:02.934Z,2.27
2017-07-01T16:03:29.233Z,2.40
2017-07-01T16:05:55.487Z,3.53
2017-07-01T16:08:21.771Z,2.27
2017-07-01T16:10:48.412Z,3.07
2017-07-01T16:13:15.087Z,2.60
2017-07-01T16:15:41.923Z,2.33
2017-07-01T16:18:08.185Z,2.60
2017-07-01T16:20:34.468Z,3.17
2017-07-01T16:23:00.801Z,2.50
2017-07-01T16:25:27.071Z,2.30
2017-07-01T16:27:53.640Z,2.50
2017-07-01T16:30:20.285Z,2.40
2017-07-01T16:32:47.074Z,3.13
2017-07-01T16:35:14.375Z,2.60
2017-07-01T16:37:40.646Z,3.17
2017-07-01T16:40:07.962Z,2.40
2017-07-01T16:42:34.241Z,2.40
2017-07-01T16:45:00.549Z,2.60
2017-07-01T16:47:27.844Z,2.50
2017-07-01T16:49:55.111Z,2.40
2017-07-01T16:52:21.466Z,2.70
2017-07-01T16:54:47.746Z,2.50
2017-07-01T16:57:14.915Z,2.50
2017-07-01T16:59:43.119Z,3.20
2017-07-01T17:02:09.421Z,2.43
2017-07-01T17:04:38.248Z,2.60
2017-07-01T17:07:04.595Z,3.50
2017-07-01T17:09:32.447Z,2.80
2017-07-01T17:11:58.760Z,2.77
2017-07-01T17:14:26.281Z,2.60
2017-07-01T17:16:52.598Z,2.50
2017-07-01T17:19:19.896Z,2.60
2017-07-01T17:21:48.308Z,3.43
2017-07-01T17:24:17.625Z,6.93
2017-07-01T17:26:43.949Z,20.17
2017-07-01T17:29:10.959Z,3.07
2017-07-01T17:31:39.040Z,4.07
2017-07-01T17:34:05.869Z,4.13
2017-07-01T17:36:32.135Z,2.97
2017-07-01T17:38:58.460Z,2.80
2017-07-01T17:41:24.999Z,2.83
2017-07-01T17:43:51.349Z,27.47
2017-07-01T17:46:17.650Z,48.73
2017-07-01T17:48:44.317Z,28.47
2017-07-01T17:51:10.676Z,22.93
2017-07-01T17:53:37.005Z,5.20
2017-07-01T17:56:03.332Z,4.60
2017-07-01T17:58:29.971Z,4.00
2017-07-01T18:00:56.700Z,4.57
2017-07-01T18:03:23.020Z,3.30
2017-07-01T18:05:49.346Z,2.80
2017-07-01T18:08:15.667Z,2.60
2017-07-01T18:10:41.946Z,2.70
2017-07-01T18:13:08.645Z,2.97
2017-07-01T18:15:34.945Z,2.57
2017-07-01T18:18:02.281Z,3.53
2017-07-01T18:20:29.557Z,2.70
2017-07-01T18:22:55.853Z,2.83
2017-07-01T18:25:22.706Z,3.50
2017-07-01T18:27:49.065Z,3.13
2017-07-01T18:30:17.138Z,2.90
2017-07-01T18:32:43.494Z,2.70
2017-07-01T18:35:10.845Z,2.87
2017-07-01T18:37:41.070Z,3.03
2017-07-01T18:40:07.792Z,3.00
2017-07-01T18:42:34.485Z,2.80
2017-07-01T18:45:00.833Z,2.90
2017-07-01T18:47:28.466Z,2.70
2017-07-01T18:49:55.124Z,3.90
2017-07-01T18:52:21.826Z,3.53
2017-07-01T18:54:48.229Z,2.87
2017-07-01T18:57:14.550Z,2.73
2017-07-01T18:59:40.953Z,4.20
2017-07-01T19:02:07.226Z,3.37
2017-07-01T19:04:33.817Z,3.10
2017-07-01T19:07:00.108Z,2.80
2017-07-01T19:09:26.851Z,3.53
2017-07-01T19:11:53.765Z,3.20
2017-07-01T19:14:20.124Z,3.20
2017-07-01T19:16:46.452Z,2.90
2017-07-01T19:19:12.794Z,3.07
2017-07-01T19:21:39.115Z,3.00
2017-07-01T19:24:05.412Z,3.03
2017-07-01T19:26:32.174Z,2.90
2017-07-01T19:28:58.474Z,2.80
2017-07-01T19:31:24.775Z,3.53
2017-07-01T19:33:51.168Z,3.20
2017-07-01T19:36:17.521Z,2.87
2017-07-01T19:38:44.254Z,3.07
2017-07-01T19:41:10.569Z,2.70
2017-07-01T19:43:37.901Z,3.57
2017-07-01T19:46:04.245Z,2.97
2017-07-01T19:48:30.629Z,2.70
2017-07-01T19:50:57.003Z,4.03
2017-07-01T19:53:23.320Z,3.73
2017-07-01T19:55:49.614Z,3.80
2017-07-01T19:58:17.100Z,2.90
2017-07-01T20:00:43.411Z,3.20
2017-07-01T20:03:09.729Z,3.97
2017-07-01T20:05:36.453Z,3.10
2017-07-01T20:08:02.730Z,2.90
2017-07-01T20:10:29.102Z,3.20
2017-07-01T20:12:55.454Z,3.10
2017-07-01T20:15:22.154Z,4.10
2017-07-01T20:17:48.500Z,3.37
2017-07-01T20:20:14.773Z,3.60
2017-07-01T20:22:41.102Z,3.20
2017-07-01T20:25:07.443Z,2.83
2017-07-01T20:27:34.736Z,2.90
2017-07-01T20:30:01.120Z,3.70
2017-07-01T20:32:27.809Z,2.90
2017-07-01T20:34:54.125Z,3.22
2017-07-01T20:37:20.417Z,3.00
2017-07-01T20:39:46.801Z,3.20
2017-07-01T20:42:13.145Z,3.30
2017-07-01T20:44:39.538Z,3.20
2017-07-01T20:47:05.876Z,3.50
2017-07-01T20:49:32.631Z,3.00
2017-07-01T20:51:58.956Z,3.40
2017-07-01T20:54:25.323Z,3.50
2017-07-01T20:56:51.685Z,3.58
2017-07-01T20:59:18.016Z,3.12
2017-07-01T21:01:44.335Z,4.57
2017-07-01T21:04:10.644Z,3.42
2017-07-01T21:06:36.962Z,3.10
2017-07-01T21:09:03.674Z,3.10
2017-07-01T21:11:30.344Z,3.60
2017-07-01T21:13:56.747Z,3.20
2017-07-01T21:16:23.067Z,3.25
2017-07-01T21:18:49.457Z,3.40
2017-07-01T21:21:15.799Z,3.00
2017-07-01T21:23:42.112Z,3.12
2017-07-01T21:26:08.424Z,3.03
2017-07-01T21:28:35.116Z,3.10
2017-07-01T21:31:01.424Z,3.10
2017-07-01T21:33:28.538Z,4.75
2017-07-01T21:35:54.848Z,3.42
2017-07-01T21:38:21.150Z,3.95
2017-07-01T21:40:47.495Z,3.50
2017-07-01T21:43:14.711Z,2.90
2017-07-01T21:45:41.417Z,3.00
2017-07-01T21:48:07.723Z,4.70
2017-07-01T21:50:34.041Z,3.10
2017-07-01T21:53:00.374Z,3.80
2017-07-01T21:55:26.697Z,2.92
2017-07-01T21:57:53.014Z,3.10
2017-07-01T22:00:19.343Z,5.45
2017-07-01T22:02:45.915Z,3.30
2017-07-01T22:05:12.187Z,3.45
2017-07-01T22:07:38.868Z,3.78
2017-07-01T22:10:05.177Z,5.07
2017-07-01T22:12:31.489Z,3.00
2017-07-01T22:14:57.794Z,3.30
2017-07-01T22:17:24.079Z,4.43
2017-07-01T22:19:50.384Z,3.50
2017-07-01T22:22:16.776Z,3.90
2017-07-01T22:24:43.049Z,3.92
2017-07-01T22:27:09.742Z,4.35
2017-07-01T22:29:36.047Z,3.50
2017-07-01T22:32:02.350Z,4.15
2017-07-01T22:34:28.676Z,4.10
2017-07-01T22:36:54.947Z,3.30
2017-07-01T22:39:21.241Z,3.75
2017-07-01T22:41:47.538Z,3.85
2017-07-01T22:44:13.866Z,3.53
2017-07-01T22:46:40.175Z,3.30
2017-07-01T22:49:07.243Z,4.75
2017-07-01T22:51:33.539Z,4.60
2017-07-01T22:53:59.814Z,3.75
2017-07-01T22:56:26.488Z,3.75
2017-07-01T22:58:52.805Z,3.60
2017-07-01T23:01:19.210Z,3.50
2017-07-01T23:03:45.510Z,3.40
2017-07-01T23:06:11.803Z,3.80
2017-07-01T23:08:38.095Z,3.42
2017-07-01T23:11:04.391Z,3.80
2017-07-01T23:13:30.700Z,3.47
2017-07-01T23:15:56.990Z,3.60
2017-07-01T23:18:23.588Z,3.47
2017-07-01T23:20:49.888Z,3.90
2017-07-01T23:23:16.171Z,4.85
2017-07-01T23:25:42.459Z,3.40
2017-07-01T23:28:08.750Z,3.50
2017-07-01T23:30:35.033Z,3.50
2017-07-01T23:33:01.345Z,4.07
2017-07-01T23:35:27.984Z,5.37
2017-07-01T23:37:54.239Z,4.18
2017-07-01T23:40:20.528Z,3.55
2017-07-01T23:42:46.871Z,3.33
2017-07-01T23:45:13.173Z,3.12
2017-07-01T23:47:39.522Z,3.60
2017-07-01T23:50:05.787Z,3.83
2017-07-01T23:52:32.104Z,3.75
2017-07-01T23:54:58.437Z,3.50
2017-07-01T23:57:24.703Z,4.55
2017-07-01T23:59:51.019Z,5.15
